Bafoussam, Cameroon
Current Conditions -  °F | °C
As of 10:00 PM on Sunday 28 Dec 2014 (Local Time) from FKKD Reporting Station
Haze Haze  
Wind Chill: 82°   Ceiling: Unl
Heat Index: 89°   Visibility: 2.5mi
Dew Point: 75°   Wind: 0mph
Humidity: 79%   Direction: NA
Pressure: 29.88"   Gusts: NA
Location:  5.49°N, 10.41°E
Report Text: FKKD 282100Z 00000KT 4000 HZ SCT016 FEW020CB 28/24 Q1012 NOSIG
Loading
Personal Weather Stations






























Interactive Weather Map New forecast layout! Learn more

10-Day Weather Forecast

Advertisements
Track Severe Weather on mobile